createdAt,value
2023-01-08T00:01:31.121Z,7.70
2023-01-08T00:03:59.116Z,7.70
2023-01-08T00:06:27.016Z,7.60
2023-01-08T00:08:55.131Z,7.60
2023-01-08T00:11:24.338Z,7.50
2023-01-08T00:13:52.160Z,7.40
2023-01-08T00:16:20.792Z,7.40
2023-01-08T00:18:49.190Z,7.40
2023-01-08T00:21:17.013Z,7.40
2023-01-08T00:23:44.828Z,7.40
2023-01-08T00:26:13.451Z,7.40
2023-01-08T00:28:42.961Z,7.40
2023-01-08T00:31:12.638Z,7.40
2023-01-08T00:33:41.454Z,7.40
2023-01-08T00:36:10.509Z,7.50
2023-01-08T00:38:38.811Z,7.40
2023-01-08T00:41:07.067Z,7.50
2023-01-08T00:43:35.278Z,7.50
2023-01-08T00:46:04.520Z,7.50
2023-01-08T00:48:33.492Z,7.50
2023-01-08T00:51:03.581Z,7.50
2023-01-08T00:53:31.405Z,7.60
2023-01-08T00:56:02.549Z,7.60
2023-01-08T00:58:31.133Z,7.60
2023-01-08T01:00:59.123Z,7.60
2023-01-08T01:03:28.732Z,7.50
2023-01-08T01:06:02.948Z,7.60
2023-01-08T01:08:30.846Z,7.60
2023-01-08T01:10:58.638Z,7.60
2023-01-08T01:13:26.457Z,7.60
2023-01-08T01:16:01.263Z,7.70
2023-01-08T01:18:30.925Z,7.70
2023-01-08T01:20:58.753Z,7.70
2023-01-08T01:23:26.879Z,7.60
2023-01-08T01:25:54.911Z,7.60
2023-01-08T01:28:22.758Z,7.60
2023-01-08T01:30:56.000Z,7.60
2023-01-08T01:33:24.007Z,7.40
2023-01-08T01:36:02.051Z,7.30
2023-01-08T01:38:30.776Z,7.30
2023-01-08T01:40:58.602Z,7.20
2023-01-08T01:43:40.717Z,7.20
2023-01-08T01:46:21.346Z,7.30
2023-01-08T01:48:51.606Z,7.30
2023-01-08T01:51:21.837Z,7.40
2023-01-08T01:53:50.925Z,7.40
2023-01-08T01:56:18.786Z,7.50
2023-01-08T01:58:46.589Z,7.50
2023-01-08T02:01:14.768Z,7.60
2023-01-08T02:03:42.656Z,7.60
2023-01-08T02:06:21.352Z,7.60
2023-01-08T02:08:57.846Z,7.60
2023-01-08T02:11:32.727Z,7.60
2023-01-08T02:14:06.543Z,7.50
2023-01-08T02:16:41.660Z,7.50
2023-01-08T02:19:19.889Z,7.40
2023-01-08T02:21:59.309Z,7.30
2023-01-08T02:24:42.367Z,7.30
2023-01-08T02:27:14.178Z,7.20
2023-01-08T02:29:42.240Z,7.10
2023-01-08T02:32:10.036Z,7.00
2023-01-08T02:34:37.820Z,6.90
2023-01-08T02:37:05.649Z,6.90
2023-01-08T02:39:47.900Z,6.80
2023-01-08T02:42:25.031Z,6.80
2023-01-08T02:44:58.383Z,6.70
2023-01-08T02:47:31.644Z,6.60
2023-01-08T02:50:14.024Z,6.50
2023-01-08T02:52:48.616Z,6.50
2023-01-08T02:55:18.050Z,6.40
2023-01-08T02:57:48.102Z,6.30
2023-01-08T03:00:16.607Z,6.30
2023-01-08T03:02:44.844Z,6.20
2023-01-08T03:05:20.026Z,6.10
2023-01-08T03:07:48.011Z,6.10
2023-01-08T03:10:16.028Z,6.10
2023-01-08T03:12:54.946Z,6.10
2023-01-08T03:15:29.911Z,6.10
2023-01-08T03:18:02.809Z,6.10
2023-01-08T03:20:32.823Z,6.20
2023-01-08T03:23:03.607Z,6.20
2023-01-08T03:25:31.787Z,6.30
2023-01-08T03:28:04.588Z,6.30
2023-01-08T03:30:32.541Z,6.30
2023-01-08T03:33:02.539Z,6.20
2023-01-08T03:35:31.629Z,6.20
2023-01-08T03:38:05.661Z,6.10
2023-01-08T03:40:37.835Z,6.10
2023-01-08T03:43:06.931Z,6.00
2023-01-08T03:45:37.829Z,6.00
2023-01-08T03:48:07.237Z,6.00
2023-01-08T03:50:35.436Z,6.00
2023-01-08T03:53:03.224Z,6.00
2023-01-08T03:55:31.085Z,6.00
2023-01-08T03:57:58.870Z,6.00
2023-01-08T04:00:28.106Z,6.00
2023-01-08T04:02:55.929Z,6.00
2023-01-08T04:05:23.876Z,6.10
2023-01-08T04:07:51.653Z,6.10
2023-01-08T04:10:19.451Z,6.10
2023-01-08T04:12:47.348Z,6.10
2023-01-08T04:15:15.288Z,6.10
2023-01-08T04:17:44.545Z,6.10
2023-01-08T04:20:12.840Z,6.10
2023-01-08T04:22:40.608Z,6.20
2023-01-08T04:25:09.195Z,6.20
2023-01-08T04:27:36.947Z,6.20
2023-01-08T04:30:05.539Z,6.30
2023-01-08T04:32:33.320Z,6.30
2023-01-08T04:35:02.851Z,6.30
2023-01-08T04:37:30.699Z,6.30
2023-01-08T04:39:58.517Z,6.40
2023-01-08T04:42:26.296Z,6.40
2023-01-08T04:44:54.142Z,6.40
2023-01-08T04:47:21.939Z,6.40
2023-01-08T04:49:49.764Z,6.50
2023-01-08T04:52:18.886Z,6.50
2023-01-08T04:54:46.686Z,6.50
2023-01-08T04:57:14.534Z,6.50
2023-01-08T04:59:42.395Z,6.50
2023-01-08T05:02:10.582Z,6.50
2023-01-08T05:04:38.673Z,6.60
2023-01-08T05:07:07.924Z,6.60
2023-01-08T05:09:37.100Z,6.60
2023-01-08T05:12:05.395Z,6.60
2023-01-08T05:14:33.407Z,6.60
2023-01-08T05:17:01.218Z,6.60
2023-01-08T05:19:29.069Z,6.60
2023-01-08T05:21:57.902Z,6.60
2023-01-08T05:24:25.766Z,6.60
2023-01-08T05:26:54.961Z,6.60
2023-01-08T05:29:23.118Z,6.50
2023-01-08T05:31:50.926Z,6.70
2023-01-08T05:34:18.756Z,6.90
2023-01-08T05:36:46.536Z,7.20
2023-01-08T05:39:14.325Z,7.30
2023-01-08T05:41:42.122Z,7.50
2023-01-08T05:44:12.412Z,7.70
2023-01-08T05:46:40.287Z,7.80
2023-01-08T05:49:08.274Z,7.90
2023-01-08T05:51:36.084Z,8.10
2023-01-08T05:54:03.942Z,8.10
2023-01-08T05:56:31.740Z,8.20
2023-01-08T05:58:59.509Z,8.30
2023-01-08T06:01:29.109Z,8.40
2023-01-08T06:03:57.088Z,8.40
2023-01-08T06:06:24.911Z,8.50
2023-01-08T06:08:52.713Z,8.60
2023-01-08T06:11:20.713Z,8.60
2023-01-08T06:13:48.554Z,8.70
2023-01-08T06:16:17.513Z,8.80
2023-01-08T06:18:46.711Z,8.80
2023-01-08T06:21:14.696Z,8.80
2023-01-08T06:23:42.651Z,8.80
2023-01-08T06:26:10.496Z,8.90
2023-01-08T06:28:38.356Z,8.90
2023-01-08T06:31:06.486Z,8.90
2023-01-08T06:33:34.702Z,8.90
2023-01-08T06:36:04.985Z,8.90
2023-01-08T06:38:33.580Z,8.90
2023-01-08T06:41:04.821Z,8.90
2023-01-08T06:43:32.680Z,8.90
2023-01-08T06:46:04.779Z,8.90
2023-01-08T06:48:32.788Z,8.90
2023-01-08T06:51:01.229Z,8.90
2023-01-08T06:53:30.418Z,8.90
2023-01-08T06:55:58.797Z,8.90
2023-01-08T06:58:27.573Z,8.90
2023-01-08T07:00:55.456Z,8.90
2023-01-08T07:03:23.379Z,8.90
2023-01-08T07:05:51.580Z,8.90
2023-01-08T07:08:20.250Z,8.90
2023-01-08T07:10:49.524Z,8.90
2023-01-08T07:13:17.429Z,8.90
2023-01-08T07:15:45.350Z,8.90
2023-01-08T07:18:13.696Z,8.90
2023-01-08T07:20:41.541Z,8.90
2023-01-08T07:23:11.935Z,8.90
2023-01-08T07:25:39.861Z,8.90
2023-01-08T07:28:12.646Z,8.90
2023-01-08T07:30:40.419Z,8.80
2023-01-08T07:33:08.249Z,8.80
2023-01-08T07:35:36.970Z,8.80
2023-01-08T07:38:04.800Z,8.80
2023-01-08T07:40:32.862Z,8.90
2023-01-08T07:43:01.568Z,8.90
2023-01-08T07:45:31.580Z,8.90
2023-01-08T07:48:00.081Z,8.90
2023-01-08T07:50:28.830Z,8.90
2023-01-08T07:52:59.386Z,8.90
2023-01-08T07:55:28.041Z,9.00
2023-01-08T07:57:56.044Z,9.00
2023-01-08T08:00:23.964Z,9.00
2023-01-08T08:02:53.200Z,9.10
2023-01-08T08:05:21.105Z,9.10
2023-01-08T08:07:48.910Z,9.20
2023-01-08T08:10:16.836Z,9.20
2023-01-08T08:12:46.229Z,9.20
2023-01-08T08:15:14.246Z,9.20
2023-01-08T08:17:45.909Z,9.30
2023-01-08T08:20:15.313Z,9.30
2023-01-08T08:22:43.183Z,9.30
2023-01-08T08:25:11.207Z,9.30
2023-01-08T08:27:39.136Z,9.40
2023-01-08T08:30:08.401Z,9.40
2023-01-08T08:32:36.443Z,9.40
2023-01-08T08:35:05.355Z,9.40
2023-01-08T08:37:34.485Z,9.50
2023-01-08T08:40:02.323Z,9.50
2023-01-08T08:42:30.183Z,9.50
2023-01-08T08:44:57.949Z,9.50
2023-01-08T08:47:26.077Z,9.60
2023-01-08T08:49:53.945Z,9.60
2023-01-08T08:52:21.747Z,9.60
2023-01-08T08:54:51.024Z,9.60
2023-01-08T08:57:18.887Z,9.60
2023-01-08T08:59:46.811Z,9.70
2023-01-08T09:02:14.854Z,9.70
2023-01-08T09:04:42.909Z,9.70
2023-01-08T09:07:10.866Z,9.70
2023-01-08T09:09:38.719Z,9.70
2023-01-08T09:12:08.507Z,9.70
2023-01-08T09:14:36.347Z,9.70
2023-01-08T09:17:04.179Z,9.70
2023-01-08T09:19:32.215Z,9.70
2023-01-08T09:22:00.017Z,9.70
2023-01-08T09:24:27.828Z,9.70
2023-01-08T09:26:55.676Z,9.70
2023-01-08T09:29:24.797Z,9.70
2023-01-08T09:31:52.728Z,9.70
2023-01-08T09:34:20.582Z,9.70
2023-01-08T09:36:48.376Z,9.80
2023-01-08T09:39:16.150Z,9.80
2023-01-08T09:41:47.055Z,9.80
2023-01-08T09:44:18.107Z,9.80
2023-01-08T09:46:48.925Z,9.80
2023-01-08T09:49:22.154Z,9.70
2023-01-08T09:51:50.246Z,9.70
2023-01-08T09:54:19.334Z,9.80
2023-01-08T09:56:47.382Z,9.80
2023-01-08T09:59:19.174Z,9.80
2023-01-08T10:01:49.340Z,9.80
2023-01-08T10:04:19.398Z,9.80
2023-01-08T10:06:53.033Z,9.70
2023-01-08T10:09:25.196Z,9.70
2023-01-08T10:11:55.768Z,9.70
2023-01-08T10:14:25.987Z,9.70
2023-01-08T10:16:59.524Z,9.70
2023-01-08T10:19:27.535Z,9.70
2023-01-08T10:21:55.446Z,9.70
2023-01-08T10:24:33.692Z,9.70
2023-01-08T10:27:10.119Z,9.70
2023-01-08T10:29:39.789Z,9.80
2023-01-08T10:32:14.465Z,9.80
2023-01-08T10:34:45.846Z,9.80
2023-01-08T10:37:23.191Z,9.80
2023-01-08T10:39:52.986Z,9.80
2023-01-08T10:42:22.356Z,9.90
2023-01-08T10:44:58.725Z,9.90
2023-01-08T10:47:30.452Z,10.00
2023-01-08T10:50:00.532Z,10.10
2023-01-08T10:52:32.857Z,10.20
2023-01-08T10:55:13.088Z,10.30
2023-01-08T10:57:43.474Z,10.40
2023-01-08T11:00:24.939Z,10.40
2023-01-08T11:02:54.159Z,10.50
2023-01-08T11:05:30.731Z,10.50
2023-01-08T11:08:00.848Z,10.50
2023-01-08T11:10:29.936Z,10.50
2023-01-08T11:13:00.746Z,10.50
2023-01-08T11:15:31.907Z,10.60
2023-01-08T11:18:22.812Z,10.60
2023-01-08T11:20:51.703Z,10.60
2023-01-08T11:23:21.722Z,10.60
2023-01-08T11:25:55.344Z,10.70
2023-01-08T11:28:30.527Z,10.60
2023-01-08T11:31:10.925Z,10.60
2023-01-08T11:33:41.492Z,10.60
2023-01-08T11:36:20.232Z,10.60
2023-01-08T11:38:48.100Z,10.60
2023-01-08T11:41:43.314Z,10.50
2023-01-08T11:44:21.050Z,10.60
2023-01-08T11:46:57.301Z,10.50
2023-01-08T11:49:49.198Z,10.50
2023-01-08T11:52:32.809Z,10.50
2023-01-08T11:55:16.649Z,10.50
2023-01-08T11:58:00.550Z,10.50
2023-01-08T12:00:43.552Z,10.50
2023-01-08T12:03:26.108Z,10.60
2023-01-08T12:06:03.948Z,10.50
2023-01-08T12:08:40.142Z,10.50
2023-01-08T12:11:17.564Z,10.50
2023-01-08T12:13:58.080Z,10.40
2023-01-08T12:16:40.932Z,10.30
2023-01-08T12:19:24.849Z,10.30
2023-01-08T12:22:25.297Z,10.30
2023-01-08T12:25:21.826Z,10.30
2023-01-08T12:28:00.260Z,10.30
2023-01-08T12:30:44.129Z,10.30
2023-01-08T12:33:16.178Z,10.30
2023-01-08T12:35:49.948Z,10.20
2023-01-08T12:38:23.845Z,10.20
2023-01-08T12:40:56.218Z,10.20
2023-01-08T12:43:29.866Z,10.30
2023-01-08T12:46:02.561Z,10.30
2023-01-08T12:48:33.725Z,10.30
2023-01-08T12:51:05.680Z,10.40
2023-01-08T12:53:45.051Z,10.40
2023-01-08T12:56:18.704Z,10.40
2023-01-08T12:59:08.022Z,10.40
2023-01-08T13:01:44.496Z,10.40
2023-01-08T13:04:13.652Z,10.40
2023-01-08T13:06:51.473Z,10.40
2023-01-08T13:09:24.936Z,10.30
2023-01-08T13:11:53.965Z,10.30
2023-01-08T13:14:22.332Z,10.20
2023-01-08T13:17:02.789Z,10.30
2023-01-08T13:19:37.168Z,10.20
2023-01-08T13:22:05.083Z,10.20
2023-01-08T13:24:37.100Z,10.10
2023-01-08T13:27:12.619Z,10.10
2023-01-08T13:29:42.946Z,10.10
2023-01-08T13:32:25.859Z,10.10
2023-01-08T13:35:18.775Z,10.10
2023-01-08T13:37:48.768Z,10.10
2023-01-08T13:40:40.331Z,10.10
2023-01-08T13:43:14.698Z,10.10
2023-01-08T13:45:43.827Z,10.20
2023-01-08T13:48:23.247Z,10.20
2023-01-08T13:50:51.723Z,10.20
2023-01-08T13:53:20.718Z,10.30
2023-01-08T13:55:57.913Z,10.30
2023-01-08T13:58:29.592Z,10.30
2023-01-08T14:01:00.503Z,10.30
2023-01-08T14:03:30.092Z,10.30
2023-01-08T14:06:07.689Z,10.40
2023-01-08T14:08:50.883Z,10.40
2023-01-08T14:11:23.590Z,10.50
2023-01-08T14:13:51.833Z,10.50
2023-01-08T14:16:20.800Z,10.40
2023-01-08T14:18:49.625Z,10.40
2023-01-08T14:21:22.473Z,10.30
2023-01-08T14:23:53.977Z,10.20
2023-01-08T14:26:29.542Z,10.10
2023-01-08T14:28:57.973Z,10.10
2023-01-08T14:31:28.043Z,10.00
2023-01-08T14:33:57.931Z,9.90
2023-01-08T14:36:26.742Z,9.80
2023-01-08T14:38:54.662Z,9.80
2023-01-08T14:41:52.647Z,9.80
2023-01-08T14:44:29.139Z,9.80
2023-01-08T14:47:04.750Z,9.80
2023-01-08T14:49:40.854Z,9.80
2023-01-08T14:52:13.253Z,9.80
2023-01-08T14:54:41.233Z,9.70
2023-01-08T14:57:13.753Z,9.70
2023-01-08T14:59:41.688Z,9.70
2023-01-08T15:02:22.917Z,9.70
2023-01-08T15:05:01.206Z,9.70
2023-01-08T15:07:29.104Z,9.70
2023-01-08T15:09:58.782Z,9.70
2023-01-08T15:12:30.683Z,9.70
2023-01-08T15:15:09.297Z,9.70
2023-01-08T15:17:37.330Z,9.70
2023-01-08T15:20:06.856Z,9.60
2023-01-08T15:22:36.335Z,9.60
2023-01-08T15:25:07.801Z,9.60
2023-01-08T15:27:37.782Z,9.50
2023-01-08T15:30:09.169Z,9.50
2023-01-08T15:32:38.974Z,9.50
2023-01-08T15:35:15.065Z,9.40
2023-01-08T15:37:43.238Z,9.40
2023-01-08T15:40:13.018Z,9.40
2023-01-08T15:42:59.632Z,9.40
2023-01-08T15:45:29.518Z,9.30
2023-01-08T15:47:57.743Z,9.30
2023-01-08T15:50:27.335Z,9.20
2023-01-08T15:52:57.338Z,9.20
2023-01-08T15:55:26.062Z,9.20
2023-01-08T15:57:56.170Z,9.20
2023-01-08T16:00:24.116Z,9.10
2023-01-08T16:02:53.663Z,9.00
2023-01-08T16:05:23.598Z,9.00
2023-01-08T16:07:52.732Z,8.90
2023-01-08T16:10:20.945Z,8.90
2023-01-08T16:12:48.992Z,8.80
2023-01-08T16:15:18.415Z,8.90
2023-01-08T16:17:46.373Z,8.90
2023-01-08T16:20:15.385Z,8.90
2023-01-08T16:22:43.753Z,9.00
2023-01-08T16:25:13.076Z,9.10
2023-01-08T16:27:41.198Z,9.10
2023-01-08T16:30:14.601Z,9.10
2023-01-08T16:32:44.398Z,9.10
2023-01-08T16:35:12.261Z,9.10
2023-01-08T16:37:40.495Z,9.00
2023-01-08T16:40:09.983Z,9.00
2023-01-08T16:42:38.423Z,9.00
2023-01-08T16:45:08.831Z,9.00
2023-01-08T16:47:39.095Z,9.00
2023-01-08T16:50:11.285Z,9.00
2023-01-08T16:52:39.767Z,9.10
2023-01-08T16:55:08.661Z,9.10
2023-01-08T16:57:44.983Z,9.20
2023-01-08T17:00:13.937Z,9.20
2023-01-08T17:02:42.144Z,9.20
2023-01-08T17:05:11.611Z,9.20
2023-01-08T17:07:39.709Z,9.20
2023-01-08T17:10:08.553Z,9.20
2023-01-08T17:12:36.454Z,9.20
2023-01-08T17:15:04.863Z,9.20
2023-01-08T17:17:33.092Z,9.20
2023-01-08T17:20:02.072Z,9.10
2023-01-08T17:22:31.328Z,9.10
2023-01-08T17:24:59.217Z,9.10
2023-01-08T17:27:27.068Z,9.00
2023-01-08T17:29:55.036Z,9.00
2023-01-08T17:32:23.071Z,9.00
2023-01-08T17:34:50.915Z,9.00
2023-01-08T17:37:18.915Z,9.00
2023-01-08T17:39:49.348Z,9.00
2023-01-08T17:42:27.563Z,9.00
2023-01-08T17:44:57.087Z,9.00
2023-01-08T17:47:25.752Z,8.90
2023-01-08T17:49:55.388Z,8.90
2023-01-08T17:52:25.224Z,8.90
2023-01-08T17:54:54.760Z,8.90
2023-01-08T17:57:22.970Z,8.90
2023-01-08T17:59:52.898Z,8.90
2023-01-08T18:02:20.866Z,8.90
2023-01-08T18:04:48.963Z,8.90
2023-01-08T18:07:34.488Z,8.80
2023-01-08T18:10:08.493Z,8.80
2023-01-08T18:12:36.537Z,8.80
2023-01-08T18:15:05.195Z,8.80
2023-01-08T18:17:33.117Z,8.80
2023-01-08T18:20:00.957Z,8.80
2023-01-08T18:22:28.842Z,8.80
2023-01-08T18:24:56.723Z,8.80
2023-01-08T18:27:26.037Z,8.80
2023-01-08T18:29:54.711Z,8.80
2023-01-08T18:32:25.963Z,8.80
2023-01-08T18:34:54.033Z,8.80
2023-01-08T18:37:23.190Z,8.80
2023-01-08T18:39:51.254Z,8.80
2023-01-08T18:42:28.010Z,8.80
2023-01-08T18:44:58.587Z,8.80
2023-01-08T18:47:28.866Z,8.80
2023-01-08T18:49:59.111Z,8.80
2023-01-08T18:52:27.028Z,8.80
2023-01-08T18:54:54.947Z,8.80
2023-01-08T18:57:22.826Z,8.80
2023-01-08T18:59:50.955Z,8.80
2023-01-08T19:02:22.199Z,8.80
2023-01-08T19:04:50.792Z,8.80
2023-01-08T19:07:18.928Z,8.80
2023-01-08T19:09:47.129Z,8.80
2023-01-08T19:12:15.066Z,8.80
2023-01-08T19:14:43.077Z,8.80
2023-01-08T19:17:11.031Z,8.80
2023-01-08T19:19:40.247Z,8.80
2023-01-08T19:22:08.151Z,8.80
2023-01-08T19:24:36.978Z,8.80
2023-01-08T19:27:05.065Z,8.70
2023-01-08T19:29:32.885Z,8.70
2023-01-08T19:32:00.862Z,8.70
2023-01-08T19:34:28.712Z,8.60
2023-01-08T19:36:59.592Z,8.60
2023-01-08T19:39:29.721Z,8.60
2023-01-08T19:42:15.415Z,8.50
2023-01-08T19:44:43.232Z,8.50
2023-01-08T19:47:11.731Z,8.40
2023-01-08T19:49:41.453Z,8.40
2023-01-08T19:52:10.648Z,8.40
2023-01-08T19:54:38.530Z,8.30
2023-01-08T19:57:06.457Z,8.30
2023-01-08T19:59:34.866Z,8.30
2023-01-08T20:02:03.031Z,8.30
2023-01-08T20:04:30.991Z,8.30
2023-01-08T20:06:59.319Z,8.20
2023-01-08T20:09:29.094Z,8.20
2023-01-08T20:11:57.336Z,8.20
2023-01-08T20:14:25.181Z,8.20
2023-01-08T20:16:53.222Z,8.10
2023-01-08T20:19:21.086Z,8.10
2023-01-08T20:21:49.135Z,8.10
2023-01-08T20:24:17.037Z,8.10
2023-01-08T20:26:46.991Z,8.10
2023-01-08T20:29:16.216Z,8.10
2023-01-08T20:31:44.649Z,8.10
2023-01-08T20:34:15.216Z,8.00
2023-01-08T20:36:44.790Z,8.00
2023-01-08T20:39:15.176Z,8.00
2023-01-08T20:41:50.017Z,8.00
2023-01-08T20:44:30.171Z,8.00
2023-01-08T20:46:58.066Z,8.00
2023-01-08T20:49:26.755Z,8.00
2023-01-08T20:51:59.160Z,8.00
2023-01-08T20:54:29.167Z,7.90
2023-01-08T20:56:57.979Z,7.90
2023-01-08T20:59:27.155Z,7.90
2023-01-08T21:01:57.126Z,7.90
2023-01-08T21:04:25.339Z,7.90
2023-01-08T21:06:53.217Z,7.90
2023-01-08T21:09:21.163Z,7.80
2023-01-08T21:11:49.052Z,7.80
2023-01-08T21:14:16.863Z,7.80
2023-01-08T21:16:45.389Z,7.80
2023-01-08T21:19:15.377Z,7.70
2023-01-08T21:21:43.370Z,7.70
2023-01-08T21:24:13.191Z,7.80
2023-01-08T21:26:41.144Z,7.70
2023-01-08T21:29:09.814Z,7.70
2023-01-08T21:31:38.631Z,7.70
2023-01-08T21:34:08.462Z,7.70
2023-01-08T21:36:39.171Z,7.70
2023-01-08T21:39:07.278Z,7.70
2023-01-08T21:41:52.602Z,7.70
2023-01-08T21:44:40.868Z,7.70
2023-01-08T21:47:10.890Z,7.70
2023-01-08T21:49:38.775Z,7.70
2023-01-08T21:52:25.873Z,7.60
2023-01-08T21:54:54.649Z,7.60
2023-01-08T21:57:22.681Z,7.60
2023-01-08T21:59:51.212Z,7.50
2023-01-08T22:02:20.824Z,7.50
2023-01-08T22:04:48.973Z,7.50
2023-01-08T22:07:18.260Z,7.50
2023-01-08T22:09:46.097Z,7.50
2023-01-08T22:12:14.778Z,7.50
2023-01-08T22:14:42.604Z,7.50
2023-01-08T22:17:10.732Z,7.50
2023-01-08T22:19:39.577Z,7.50
2023-01-08T22:22:10.763Z,7.50
2023-01-08T22:24:41.090Z,7.50
2023-01-08T22:27:09.454Z,7.50
2023-01-08T22:29:37.901Z,7.50
2023-01-08T22:32:05.970Z,7.40
2023-01-08T22:34:34.951Z,7.40
2023-01-08T22:37:02.886Z,7.40
2023-01-08T22:39:30.905Z,7.40
2023-01-08T22:42:00.017Z,7.40
2023-01-08T22:44:27.853Z,7.30
2023-01-08T22:46:56.494Z,7.40
2023-01-08T22:49:24.360Z,7.30
2023-01-08T22:51:52.355Z,7.30
2023-01-08T22:54:20.133Z,7.40
2023-01-08T22:56:47.896Z,7.40
2023-01-08T22:59:17.083Z,7.40
2023-01-08T23:01:44.912Z,7.40
2023-01-08T23:04:12.834Z,7.40
2023-01-08T23:06:40.609Z,7.40
2023-01-08T23:09:08.989Z,7.40
2023-01-08T23:11:37.491Z,7.40
2023-01-08T23:14:05.439Z,7.40
2023-01-08T23:16:34.596Z,7.40
2023-01-08T23:19:02.433Z,7.30
2023-01-08T23:21:30.235Z,7.40
2023-01-08T23:23:58.143Z,7.40
2023-01-08T23:26:28.133Z,7.40
2023-01-08T23:28:57.085Z,7.40
2023-01-08T23:31:27.307Z,7.40
2023-01-08T23:33:56.910Z,7.40
2023-01-08T23:36:25.478Z,7.40
2023-01-08T23:38:55.150Z,7.40
2023-01-08T23:41:25.941Z,7.40
2023-01-08T23:43:54.765Z,7.50
2023-01-08T23:46:22.545Z,7.50
2023-01-08T23:48:50.951Z,7.50
2023-01-08T23:51:20.116Z,7.50
2023-01-08T23:53:47.940Z,7.60
2023-01-08T23:56:15.781Z,7.60
2023-01-08T23:58:45.220Z,7.60
